Quixere, Brazil
Current Conditions -  °F | °C
As of 10:00 AM on Friday 28 Nov 2014 (Local Time) from SBMS Reporting Station
Scattered Clouds Scattered Clouds  
Wind Chill: 91°   Ceiling: Unl
Heat Index: 94°   Visibility: 6mi
Dew Point: 66°   Wind: 8mph
Humidity: 43%   Direction: 90°E
Pressure: 29.88"   Gusts: NA
Location:  5.07°S, 37.99°W
Report Text: SBMS 281300Z 09007KT 9999 SCT030 33/19 Q1012
Loading
Personal Weather Stations






























Interactive Weather Map New forecast layout! Learn more

10-Day Weather Forecast

Advertisements
Track Severe Weather on mobile